Millbrook, Canada
Current Conditions -  °F | °C
As of 10:09 AM on Tuesday 21 Oct 2014 (Local Time) from CYPQ Reporting Station
Light Rain Light Rain  
Wind Chill: 39°   Ceiling: 900
Heat Index: 45°   Visibility: 3mi
Dew Point: 45°   Wind: 10mph
Humidity: 100%   Direction: 30°NNE
Pressure: 29.87"   Gusts: 17mph
Location:  44.15°N, 78.45°W
Report Text: CYPQ 211409Z AUTO 03009G15KT 3SM -RA BR OVC009 07/07 A2987 RMK SLP120
Loading
Personal Weather Stations






























Interactive Weather Map
Tropical Storm Tracking
New forecast layout! Learn more

10-Day Weather Forecast

Advertisements
Track Severe Weather on mobile